sensor_id;sensor_type;location;lat;lon;timestamp;P1;durP1;ratioP1;P2;durP2;ratioP2
79017;SDS011;69817;44.694;37.774;2023-05-16T00:00:21;8.57;;;1.73;;
79017;SDS011;69817;44.694;37.774;2023-05-16T00:01:25;8.70;;;1.85;;
79017;SDS011;69817;44.694;37.774;2023-05-16T00:02:30;10.40;;;1.67;;
79017;SDS011;69817;44.694;37.774;2023-05-16T00:03:31;4.90;;;1.42;;
79017;SDS011;69817;44.694;37.774;2023-05-16T00:04:34;5.78;;;1.50;;
79017;SDS011;69817;44.694;37.774;2023-05-16T00:05:36;6.28;;;1.60;;
79017;SDS011;69817;44.694;37.774;2023-05-16T00:06:38;4.40;;;1.40;;
79017;SDS011;69817;44.694;37.774;2023-05-16T00:07:44;5.43;;;1.40;;
79017;SDS011;69817;44.694;37.774;2023-05-16T00:08:47;7.47;;;1.50;;
79017;SDS011;69817;44.694;37.774;2023-05-16T00:09:49;3.55;;;1.20;;
79017;SDS011;69817;44.694;37.774;2023-05-16T00:10:51;6.32;;;1.35;;
79017;SDS011;69817;44.694;37.774;2023-05-16T00:11:52;4.30;;;1.75;;
79017;SDS011;69817;44.694;37.774;2023-05-16T00:12:54;4.72;;;1.50;;
79017;SDS011;69817;44.694;37.774;2023-05-16T00:13:56;5.45;;;1.70;;
79017;SDS011;69817;44.694;37.774;2023-05-16T00:14:58;4.32;;;1.52;;
79017;SDS011;69817;44.694;37.774;2023-05-16T00:16:00;5.30;;;1.63;;
79017;SDS011;69817;44.694;37.774;2023-05-16T00:17:02;5.57;;;1.30;;
79017;SDS011;69817;44.694;37.774;2023-05-16T00:18:11;4.90;;;1.33;;
79017;SDS011;69817;44.694;37.774;2023-05-16T00:19:15;6.10;;;1.30;;
79017;SDS011;69817;44.694;37.774;2023-05-16T00:20:17;8.07;;;1.73;;
79017;SDS011;69817;44.694;37.774;2023-05-16T00:21:23;6.50;;;1.45;;
79017;SDS011;69817;44.694;37.774;2023-05-16T00:22:24;5.03;;;1.38;;
79017;SDS011;69817;44.694;37.774;2023-05-16T00:23:32;5.45;;;1.45;;
79017;SDS011;69817;44.694;37.774;2023-05-16T00:24:34;5.07;;;1.33;;
79017;SDS011;69817;44.694;37.774;2023-05-16T00:25:35;7.57;;;1.40;;
79017;SDS011;69817;44.694;37.774;2023-05-16T00:26:37;4.63;;;1.40;;
79017;SDS011;69817;44.694;37.774;2023-05-16T00:27:38;5.07;;;1.50;;
79017;SDS011;69817;44.694;37.774;2023-05-16T00:28:40;4.70;;;1.70;;
79017;SDS011;69817;44.694;37.774;2023-05-16T00:29:42;4.93;;;1.65;;
79017;SDS011;69817;44.694;37.774;2023-05-16T00:30:43;4.28;;;1.20;;
79017;SDS011;69817;44.694;37.774;2023-05-16T00:31:45;8.27;;;1.65;;
79017;SDS011;69817;44.694;37.774;2023-05-16T00:32:47;5.50;;;1.65;;
79017;SDS011;69817;44.694;37.774;2023-05-16T00:33:48;6.38;;;1.42;;
79017;SDS011;69817;44.694;37.774;2023-05-16T00:34:51;4.75;;;1.48;;
79017;SDS011;69817;44.694;37.774;2023-05-16T00:35:54;4.22;;;1.50;;
79017;SDS011;69817;44.694;37.774;2023-05-16T00:36:56;5.85;;;1.50;;
79017;SDS011;69817;44.694;37.774;2023-05-16T00:37:57;5.38;;;1.30;;
79017;SDS011;69817;44.694;37.774;2023-05-16T00:38:59;5.95;;;1.30;;
79017;SDS011;69817;44.694;37.774;2023-05-16T00:40:01;7.03;;;1.50;;
79017;SDS011;69817;44.694;37.774;2023-05-16T00:41:02;5.05;;;1.50;;
79017;SDS011;69817;44.694;37.774;2023-05-16T00:42:04;4.82;;;1.40;;
79017;SDS011;69817;44.694;37.774;2023-05-16T00:43:07;5.13;;;1.40;;
79017;SDS011;69817;44.694;37.774;2023-05-16T00:44:08;4.68;;;1.63;;
79017;SDS011;69817;44.694;37.774;2023-05-16T00:45:10;5.70;;;1.45;;
79017;SDS011;69817;44.694;37.774;2023-05-16T00:46:12;4.05;;;1.27;;
79017;SDS011;69817;44.694;37.774;2023-05-16T00:47:13;5.93;;;1.50;;
79017;SDS011;69817;44.694;37.774;2023-05-16T00:48:15;3.67;;;1.60;;
79017;SDS011;69817;44.694;37.774;2023-05-16T00:49:17;4.43;;;1.55;;
79017;SDS011;69817;44.694;37.774;2023-05-16T00:50:19;6.57;;;1.48;;
79017;SDS011;69817;44.694;37.774;2023-05-16T00:51:20;4.38;;;1.50;;
79017;SDS011;69817;44.694;37.774;2023-05-16T00:52:22;4.43;;;1.40;;
79017;SDS011;69817;44.694;37.774;2023-05-16T00:53:24;5.00;;;1.85;;
79017;SDS011;69817;44.694;37.774;2023-05-16T00:54:27;4.80;;;1.25;;
79017;SDS011;69817;44.694;37.774;2023-05-16T00:55:30;4.38;;;1.48;;
79017;SDS011;69817;44.694;37.774;2023-05-16T00:56:32;4.20;;;1.23;;
79017;SDS011;69817;44.694;37.774;2023-05-16T00:57:34;4.35;;;1.40;;
79017;SDS011;69817;44.694;37.774;2023-05-16T00:58:37;3.70;;;1.20;;
79017;SDS011;69817;44.694;37.774;2023-05-16T00:59:38;4.60;;;1.40;;
79017;SDS011;69817;44.694;37.774;2023-05-16T01:00:43;3.75;;;1.17;;
79017;SDS011;69817;44.694;37.774;2023-05-16T01:01:48;5.35;;;1.58;;
79017;SDS011;69817;44.694;37.774;2023-05-16T01:02:52;6.43;;;1.30;;
79017;SDS011;69817;44.694;37.774;2023-05-16T01:03:54;5.40;;;1.40;;
79017;SDS011;69817;44.694;37.774;2023-05-16T01:04:55;4.97;;;1.40;;
79017;SDS011;69817;44.694;37.774;2023-05-16T01:05:58;5.13;;;1.58;;
79017;SDS011;69817;44.694;37.774;2023-05-16T01:07:00;4.10;;;1.30;;
79017;SDS011;69817;44.694;37.774;2023-05-16T01:08:02;5.20;;;1.50;;
79017;SDS011;69817;44.694;37.774;2023-05-16T01:09:04;6.40;;;1.45;;
79017;SDS011;69817;44.694;37.774;2023-05-16T01:10:07;4.53;;;1.30;;
79017;SDS011;69817;44.694;37.774;2023-05-16T01:11:17;4.43;;;1.20;;
79017;SDS011;69817;44.694;37.774;2023-05-16T01:16:21;5.25;;;1.55;;
79017;SDS011;69817;44.694;37.774;2023-05-16T01:17:49;5.68;;;1.52;;
79017;SDS011;69817;44.694;37.774;2023-05-16T01:23:57;4.38;;;1.25;;
79017;SDS011;69817;44.694;37.774;2023-05-16T01:25:08;4.25;;;1.40;;
79017;SDS011;69817;44.694;37.774;2023-05-16T01:26:31;6.35;;;1.63;;
79017;SDS011;69817;44.694;37.774;2023-05-16T01:27:34;4.45;;;1.40;;
79017;SDS011;69817;44.694;37.774;2023-05-16T01:28:39;2.97;;;1.20;;
79017;SDS011;69817;44.694;37.774;2023-05-16T01:29:41;4.93;;;1.60;;
79017;SDS011;69817;44.694;37.774;2023-05-16T01:30:44;5.07;;;1.52;;
79017;SDS011;69817;44.694;37.774;2023-05-16T01:31:46;3.35;;;1.20;;
79017;SDS011;69817;44.694;37.774;2023-05-16T01:32:47;3.38;;;1.30;;
79017;SDS011;69817;44.694;37.774;2023-05-16T01:33:49;4.07;;;1.50;;
79017;SDS011;69817;44.694;37.774;2023-05-16T01:34:50;4.10;;;1.40;;
79017;SDS011;69817;44.694;37.774;2023-05-16T01:37:18;5.85;;;1.30;;
79017;SDS011;69817;44.694;37.774;2023-05-16T01:38:26;4.75;;;1.50;;
79017;SDS011;69817;44.694;37.774;2023-05-16T01:39:40;6.20;;;1.40;;
79017;SDS011;69817;44.694;37.774;2023-05-16T01:40:58;4.25;;;1.40;;
79017;SDS011;69817;44.694;37.774;2023-05-16T01:42:06;5.78;;;2.20;;
79017;SDS011;69817;44.694;37.774;2023-05-16T01:43:12;5.72;;;2.30;;
79017;SDS011;69817;44.694;37.774;2023-05-16T01:44:20;7.07;;;2.42;;
79017;SDS011;69817;44.694;37.774;2023-05-16T01:45:31;6.30;;;2.30;;
79017;SDS011;69817;44.694;37.774;2023-05-16T01:46:37;6.22;;;2.25;;
79017;SDS011;69817;44.694;37.774;2023-05-16T01:47:44;8.05;;;2.22;;
79017;SDS011;69817;44.694;37.774;2023-05-16T01:50:17;6.45;;;2.50;;
79017;SDS011;69817;44.694;37.774;2023-05-16T01:51:22;6.25;;;2.40;;
79017;SDS011;69817;44.694;37.774;2023-05-16T01:52:41;6.00;;;2.35;;
79017;SDS011;69817;44.694;37.774;2023-05-16T01:53:45;7.72;;;2.63;;
79017;SDS011;69817;44.694;37.774;2023-05-16T01:54:49;5.88;;;2.40;;
79017;SDS011;69817;44.694;37.774;2023-05-16T01:55:55;6.03;;;2.40;;
79017;SDS011;69817;44.694;37.774;2023-05-16T01:56:58;6.78;;;2.42;;
79017;SDS011;69817;44.694;37.774;2023-05-16T01:58:02;7.47;;;2.58;;
79017;SDS011;69817;44.694;37.774;2023-05-16T01:59:06;5.40;;;2.42;;
79017;SDS011;69817;44.694;37.774;2023-05-16T02:00:10;5.63;;;2.33;;
79017;SDS011;69817;44.694;37.774;2023-05-16T02:01:16;6.28;;;2.45;;
79017;SDS011;69817;44.694;37.774;2023-05-16T02:02:18;7.03;;;2.85;;
79017;SDS011;69817;44.694;37.774;2023-05-16T02:03:20;8.35;;;2.80;;
79017;SDS011;69817;44.694;37.774;2023-05-16T02:04:22;7.47;;;2.75;;
79017;SDS011;69817;44.694;37.774;2023-05-16T02:05:24;7.20;;;2.63;;
79017;SDS011;69817;44.694;37.774;2023-05-16T02:06:26;8.23;;;2.60;;
79017;SDS011;69817;44.694;37.774;2023-05-16T02:07:29;7.60;;;2.65;;
79017;SDS011;69817;44.694;37.774;2023-05-16T02:08:31;6.35;;;2.53;;
79017;SDS011;69817;44.694;37.774;2023-05-16T02:09:32;8.27;;;2.63;;
79017;SDS011;69817;44.694;37.774;2023-05-16T02:10:34;6.53;;;2.75;;
79017;SDS011;69817;44.694;37.774;2023-05-16T02:11:35;7.60;;;2.85;;
79017;SDS011;69817;44.694;37.774;2023-05-16T02:12:37;9.45;;;2.83;;
79017;SDS011;69817;44.694;37.774;2023-05-16T02:13:38;8.35;;;2.50;;
79017;SDS011;69817;44.694;37.774;2023-05-16T02:14:40;5.25;;;2.58;;
79017;SDS011;69817;44.694;37.774;2023-05-16T02:15:42;8.45;;;2.60;;
79017;SDS011;69817;44.694;37.774;2023-05-16T02:16:43;6.70;;;2.50;;
79017;SDS011;69817;44.694;37.774;2023-05-16T02:17:45;7.38;;;2.53;;
79017;SDS011;69817;44.694;37.774;2023-05-16T02:18:47;10.38;;;2.85;;
79017;SDS011;69817;44.694;37.774;2023-05-16T02:19:49;8.52;;;2.70;;
79017;SDS011;69817;44.694;37.774;2023-05-16T02:20:50;6.28;;;2.53;;
79017;SDS011;69817;44.694;37.774;2023-05-16T02:21:52;8.38;;;2.65;;
79017;SDS011;69817;44.694;37.774;2023-05-16T02:22:59;6.80;;;2.40;;
79017;SDS011;69817;44.694;37.774;2023-05-16T02:24:01;5.07;;;2.42;;
79017;SDS011;69817;44.694;37.774;2023-05-16T02:25:03;5.97;;;2.50;;
79017;SDS011;69817;44.694;37.774;2023-05-16T02:26:05;5.38;;;2.47;;
79017;SDS011;69817;44.694;37.774;2023-05-16T02:27:07;5.93;;;2.38;;
79017;SDS011;69817;44.694;37.774;2023-05-16T02:28:08;6.93;;;2.63;;
79017;SDS011;69817;44.694;37.774;2023-05-16T02:29:10;6.68;;;2.50;;
79017;SDS011;69817;44.694;37.774;2023-05-16T02:30:11;7.32;;;2.33;;
79017;SDS011;69817;44.694;37.774;2023-05-16T02:31:23;6.10;;;2.40;;
79017;SDS011;69817;44.694;37.774;2023-05-16T02:32:26;7.63;;;2.58;;
79017;SDS011;69817;44.694;37.774;2023-05-16T02:33:28;9.73;;;2.60;;
79017;SDS011;69817;44.694;37.774;2023-05-16T02:34:29;7.72;;;2.72;;
79017;SDS011;69817;44.694;37.774;2023-05-16T02:35:31;7.70;;;2.50;;
79017;SDS011;69817;44.694;37.774;2023-05-16T02:37:36;6.10;;;2.72;;
79017;SDS011;69817;44.694;37.774;2023-05-16T02:38:38;6.88;;;2.50;;
79017;SDS011;69817;44.694;37.774;2023-05-16T02:39:39;6.80;;;2.58;;
79017;SDS011;69817;44.694;37.774;2023-05-16T02:40:41;8.77;;;2.55;;
79017;SDS011;69817;44.694;37.774;2023-05-16T02:41:43;7.05;;;2.65;;
79017;SDS011;69817;44.694;37.774;2023-05-16T02:42:44;7.95;;;2.75;;
79017;SDS011;69817;44.694;37.774;2023-05-16T02:43:46;7.80;;;2.47;;
79017;SDS011;69817;44.694;37.774;2023-05-16T02:44:48;6.47;;;2.50;;
79017;SDS011;69817;44.694;37.774;2023-05-16T02:45:50;8.32;;;2.70;;
79017;SDS011;69817;44.694;37.774;2023-05-16T02:46:52;5.70;;;2.60;;
79017;SDS011;69817;44.694;37.774;2023-05-16T02:47:55;7.00;;;2.65;;
79017;SDS011;69817;44.694;37.774;2023-05-16T02:48:56;7.20;;;2.70;;
79017;SDS011;69817;44.694;37.774;2023-05-16T02:49:58;6.50;;;2.70;;
79017;SDS011;69817;44.694;37.774;2023-05-16T02:51:00;6.10;;;2.40;;
79017;SDS011;69817;44.694;37.774;2023-05-16T02:52:02;7.13;;;2.60;;
79017;SDS011;69817;44.694;37.774;2023-05-16T02:53:04;5.50;;;2.50;;
79017;SDS011;69817;44.694;37.774;2023-05-16T02:54:06;7.63;;;2.80;;
79017;SDS011;69817;44.694;37.774;2023-05-16T02:55:09;7.60;;;2.88;;
79017;SDS011;69817;44.694;37.774;2023-05-16T02:56:11;9.50;;;2.55;;
79017;SDS011;69817;44.694;37.774;2023-05-16T02:57:14;9.93;;;2.92;;
79017;SDS011;69817;44.694;37.774;2023-05-16T02:58:16;8.38;;;2.67;;
79017;SDS011;69817;44.694;37.774;2023-05-16T02:59:17;7.00;;;2.88;;
79017;SDS011;69817;44.694;37.774;2023-05-16T03:00:19;6.10;;;2.70;;
79017;SDS011;69817;44.694;37.774;2023-05-16T03:02:23;11.88;;;3.13;;
79017;SDS011;69817;44.694;37.774;2023-05-16T03:03:24;6.05;;;2.60;;
79017;SDS011;69817;44.694;37.774;2023-05-16T03:04:26;6.30;;;2.72;;
79017;SDS011;69817;44.694;37.774;2023-05-16T03:05:28;9.65;;;2.45;;
79017;SDS011;69817;44.694;37.774;2023-05-16T03:06:29;7.80;;;2.80;;
79017;SDS011;69817;44.694;37.774;2023-05-16T03:07:34;8.90;;;3.30;;
79017;SDS011;69817;44.694;37.774;2023-05-16T03:08:39;9.50;;;2.75;;
79017;SDS011;69817;44.694;37.774;2023-05-16T03:09:41;9.13;;;3.20;;
79017;SDS011;69817;44.694;37.774;2023-05-16T03:10:42;6.13;;;2.53;;
79017;SDS011;69817;44.694;37.774;2023-05-16T03:11:44;6.97;;;2.55;;
79017;SDS011;69817;44.694;37.774;2023-05-16T03:12:46;7.85;;;3.10;;
79017;SDS011;69817;44.694;37.774;2023-05-16T03:13:47;6.20;;;2.40;;
79017;SDS011;69817;44.694;37.774;2023-05-16T03:14:49;7.07;;;2.65;;
79017;SDS011;69817;44.694;37.774;2023-05-16T03:15:51;6.32;;;2.63;;
79017;SDS011;69817;44.694;37.774;2023-05-16T03:16:53;7.95;;;2.70;;
79017;SDS011;69817;44.694;37.774;2023-05-16T03:17:54;6.95;;;2.65;;
79017;SDS011;69817;44.694;37.774;2023-05-16T03:18:57;7.22;;;2.47;;
79017;SDS011;69817;44.694;37.774;2023-05-16T03:19:59;7.20;;;2.92;;
79017;SDS011;69817;44.694;37.774;2023-05-16T03:21:01;8.70;;;2.72;;
79017;SDS011;69817;44.694;37.774;2023-05-16T03:22:03;7.30;;;2.70;;
79017;SDS011;69817;44.694;37.774;2023-05-16T03:23:10;7.68;;;2.53;;
79017;SDS011;69817;44.694;37.774;2023-05-16T03:24:11;8.93;;;3.65;;
79017;SDS011;69817;44.694;37.774;2023-05-16T03:25:13;8.70;;;3.20;;
79017;SDS011;69817;44.694;37.774;2023-05-16T03:26:15;7.72;;;3.33;;
79017;SDS011;69817;44.694;37.774;2023-05-16T03:27:17;9.27;;;3.30;;
79017;SDS011;69817;44.694;37.774;2023-05-16T03:28:18;8.18;;;3.00;;
79017;SDS011;69817;44.694;37.774;2023-05-16T03:29:20;6.38;;;2.80;;
79017;SDS011;69817;44.694;37.774;2023-05-16T03:30:22;7.70;;;2.83;;
79017;SDS011;69817;44.694;37.774;2023-05-16T03:31:23;6.25;;;2.72;;
79017;SDS011;69817;44.694;37.774;2023-05-16T03:32:25;8.40;;;2.70;;
79017;SDS011;69817;44.694;37.774;2023-05-16T03:33:27;6.35;;;2.50;;
79017;SDS011;69817;44.694;37.774;2023-05-16T03:34:28;7.78;;;2.70;;
79017;SDS011;69817;44.694;37.774;2023-05-16T03:35:31;8.27;;;2.50;;
79017;SDS011;69817;44.694;37.774;2023-05-16T03:36:33;7.82;;;2.83;;
79017;SDS011;69817;44.694;37.774;2023-05-16T03:37:35;5.47;;;2.58;;
79017;SDS011;69817;44.694;37.774;2023-05-16T03:38:43;8.68;;;2.80;;
79017;SDS011;69817;44.694;37.774;2023-05-16T03:39:45;7.88;;;2.88;;
79017;SDS011;69817;44.694;37.774;2023-05-16T03:40:46;7.00;;;2.60;;
79017;SDS011;69817;44.694;37.774;2023-05-16T03:41:48;7.43;;;2.58;;
79017;SDS011;69817;44.694;37.774;2023-05-16T03:42:50;7.00;;;2.80;;
79017;SDS011;69817;44.694;37.774;2023-05-16T03:43:51;7.35;;;2.70;;
79017;SDS011;69817;44.694;37.774;2023-05-16T03:44:53;10.90;;;2.97;;
79017;SDS011;69817;44.694;37.774;2023-05-16T03:45:54;8.43;;;2.80;;
79017;SDS011;69817;44.694;37.774;2023-05-16T03:46:56;8.20;;;2.50;;
79017;SDS011;69817;44.694;37.774;2023-05-16T03:47:58;7.13;;;2.55;;
79017;SDS011;69817;44.694;37.774;2023-05-16T03:49:00;9.20;;;2.90;;
79017;SDS011;69817;44.694;37.774;2023-05-16T03:50:01;7.95;;;2.70;;
79017;SDS011;69817;44.694;37.774;2023-05-16T03:51:03;6.32;;;2.78;;
79017;SDS011;69817;44.694;37.774;2023-05-16T03:52:05;6.97;;;2.75;;
79017;SDS011;69817;44.694;37.774;2023-05-16T03:53:08;8.38;;;2.70;;
79017;SDS011;69817;44.694;37.774;2023-05-16T03:54:10;7.45;;;2.80;;
79017;SDS011;69817;44.694;37.774;2023-05-16T03:55:12;8.48;;;3.03;;
79017;SDS011;69817;44.694;37.774;2023-05-16T03:56:14;6.85;;;2.70;;
79017;SDS011;69817;44.694;37.774;2023-05-16T03:57:16;10.13;;;2.70;;
79017;SDS011;69817;44.694;37.774;2023-05-16T03:58:18;6.63;;;2.80;;
79017;SDS011;69817;44.694;37.774;2023-05-16T03:59:19;5.95;;;2.60;;
79017;SDS011;69817;44.694;37.774;2023-05-16T04:00:21;6.93;;;2.83;;
79017;SDS011;69817;44.694;37.774;2023-05-16T04:01:24;7.05;;;2.85;;
79017;SDS011;69817;44.694;37.774;2023-05-16T04:02:25;6.78;;;2.70;;
79017;SDS011;69817;44.694;37.774;2023-05-16T04:03:27;9.68;;;2.83;;
79017;SDS011;69817;44.694;37.774;2023-05-16T04:04:30;7.50;;;2.83;;
79017;SDS011;69817;44.694;37.774;2023-05-16T04:05:31;9.05;;;2.85;;
79017;SDS011;69817;44.694;37.774;2023-05-16T04:06:33;7.43;;;2.90;;
79017;SDS011;69817;44.694;37.774;2023-05-16T04:07:35;8.20;;;2.97;;
79017;SDS011;69817;44.694;37.774;2023-05-16T04:08:37;6.93;;;2.83;;
79017;SDS011;69817;44.694;37.774;2023-05-16T04:09:40;9.23;;;3.08;;
79017;SDS011;69817;44.694;37.774;2023-05-16T04:10:41;7.70;;;2.83;;
79017;SDS011;69817;44.694;37.774;2023-05-16T04:11:43;8.63;;;3.50;;
79017;SDS011;69817;44.694;37.774;2023-05-16T04:12:45;10.93;;;3.20;;
79017;SDS011;69817;44.694;37.774;2023-05-16T04:13:47;5.80;;;2.97;;
79017;SDS011;69817;44.694;37.774;2023-05-16T04:14:48;10.00;;;3.35;;
79017;SDS011;69817;44.694;37.774;2023-05-16T04:15:50;8.82;;;3.13;;
79017;SDS011;69817;44.694;37.774;2023-05-16T04:16:52;9.75;;;3.50;;
79017;SDS011;69817;44.694;37.774;2023-05-16T04:17:53;10.25;;;3.60;;
79017;SDS011;69817;44.694;37.774;2023-05-16T04:18:55;8.57;;;3.65;;
79017;SDS011;69817;44.694;37.774;2023-05-16T04:19:57;8.30;;;3.10;;
79017;SDS011;69817;44.694;37.774;2023-05-16T04:20:58;10.07;;;3.80;;
79017;SDS011;69817;44.694;37.774;2023-05-16T04:22:00;7.85;;;3.15;;
79017;SDS011;69817;44.694;37.774;2023-05-16T04:23:07;8.00;;;3.15;;
79017;SDS011;69817;44.694;37.774;2023-05-16T04:24:11;9.40;;;3.22;;
79017;SDS011;69817;44.694;37.774;2023-05-16T04:25:13;6.38;;;2.90;;
79017;SDS011;69817;44.694;37.774;2023-05-16T04:26:15;10.75;;;2.97;;
79017;SDS011;69817;44.694;37.774;2023-05-16T04:27:16;9.18;;;3.03;;
79017;SDS011;69817;44.694;37.774;2023-05-16T04:28:18;9.82;;;3.08;;
79017;SDS011;69817;44.694;37.774;2023-05-16T04:29:20;8.15;;;3.15;;
79017;SDS011;69817;44.694;37.774;2023-05-16T04:30:22;8.68;;;3.15;;
79017;SDS011;69817;44.694;37.774;2023-05-16T04:31:26;7.78;;;2.90;;
79017;SDS011;69817;44.694;37.774;2023-05-16T04:32:28;10.00;;;3.20;;
79017;SDS011;69817;44.694;37.774;2023-05-16T04:33:30;7.50;;;3.03;;
79017;SDS011;69817;44.694;37.774;2023-05-16T04:34:31;6.53;;;2.63;;
79017;SDS011;69817;44.694;37.774;2023-05-16T04:35:34;12.55;;;3.17;;
79017;SDS011;69817;44.694;37.774;2023-05-16T04:36:37;8.38;;;2.90;;
79017;SDS011;69817;44.694;37.774;2023-05-16T04:37:39;25.23;;;3.70;;
79017;SDS011;69817;44.694;37.774;2023-05-16T04:38:41;14.43;;;3.58;;
79017;SDS011;69817;44.694;37.774;2023-05-16T04:39:42;18.65;;;3.70;;
79017;SDS011;69817;44.694;37.774;2023-05-16T04:40:44;11.73;;;3.78;;
79017;SDS011;69817;44.694;37.774;2023-05-16T04:41:46;15.13;;;3.60;;
79017;SDS011;69817;44.694;37.774;2023-05-16T04:42:47;17.70;;;3.33;;
79017;SDS011;69817;44.694;37.774;2023-05-16T04:43:49;20.10;;;3.20;;
79017;SDS011;69817;44.694;37.774;2023-05-16T04:44:51;8.30;;;3.25;;
79017;SDS011;69817;44.694;37.774;2023-05-16T04:45:53;9.25;;;3.08;;
79017;SDS011;69817;44.694;37.774;2023-05-16T04:46:54;10.32;;;2.92;;
79017;SDS011;69817;44.694;37.774;2023-05-16T04:47:56;8.85;;;3.13;;
79017;SDS011;69817;44.694;37.774;2023-05-16T04:48:58;10.25;;;2.97;;
79017;SDS011;69817;44.694;37.774;2023-05-16T04:50:00;13.50;;;2.95;;
79017;SDS011;69817;44.694;37.774;2023-05-16T04:51:02;10.98;;;3.28;;
79017;SDS011;69817;44.694;37.774;2023-05-16T04:52:04;10.40;;;2.85;;
79017;SDS011;69817;44.694;37.774;2023-05-16T04:53:08;9.85;;;2.83;;
79017;SDS011;69817;44.694;37.774;2023-05-16T04:54:09;8.73;;;2.78;;
79017;SDS011;69817;44.694;37.774;2023-05-16T04:55:30;7.90;;;2.60;;
79017;SDS011;69817;44.694;37.774;2023-05-16T04:56:31;8.65;;;2.80;;
79017;SDS011;69817;44.694;37.774;2023-05-16T04:57:34;6.95;;;2.85;;
79017;SDS011;69817;44.694;37.774;2023-05-16T04:59:12;7.25;;;2.67;;
79017;SDS011;69817;44.694;37.774;2023-05-16T05:00:15;6.85;;;2.90;;
79017;SDS011;69817;44.694;37.774;2023-05-16T05:01:35;7.30;;;2.90;;
79017;SDS011;69817;44.694;37.774;2023-05-16T05:02:37;8.50;;;2.58;;
79017;SDS011;69817;44.694;37.774;2023-05-16T05:03:39;8.10;;;3.00;;
79017;SDS011;69817;44.694;37.774;2023-05-16T05:04:40;9.35;;;2.80;;
79017;SDS011;69817;44.694;37.774;2023-05-16T05:05:52;10.30;;;2.90;;
79017;SDS011;69817;44.694;37.774;2023-05-16T05:07:12;8.55;;;2.80;;
79017;SDS011;69817;44.694;37.774;2023-05-16T05:08:14;7.68;;;2.70;;
79017;SDS011;69817;44.694;37.774;2023-05-16T05:09:16;9.57;;;2.80;;
79017;SDS011;69817;44.694;37.774;2023-05-16T05:10:18;8.02;;;3.15;;
79017;SDS011;69817;44.694;37.774;2023-05-16T05:11:19;9.95;;;2.67;;
79017;SDS011;69817;44.694;37.774;2023-05-16T05:12:21;20.75;;;2.95;;
79017;SDS011;69817;44.694;37.774;2023-05-16T05:13:23;9.70;;;3.10;;
79017;SDS011;69817;44.694;37.774;2023-05-16T05:14:24;6.15;;;2.60;;
79017;SDS011;69817;44.694;37.774;2023-05-16T05:15:44;7.40;;;2.90;;
79017;SDS011;69817;44.694;37.774;2023-05-16T05:16:46;7.43;;;2.78;;
79017;SDS011;69817;44.694;37.774;2023-05-16T05:17:47;7.72;;;2.95;;
79017;SDS011;69817;44.694;37.774;2023-05-16T05:18:49;9.52;;;2.78;;
79017;SDS011;69817;44.694;37.774;2023-05-16T05:20:01;8.15;;;2.70;;
79017;SDS011;69817;44.694;37.774;2023-05-16T05:21:06;7.15;;;2.92;;
79017;SDS011;69817;44.694;37.774;2023-05-16T05:22:08;8.80;;;3.10;;
79017;SDS011;69817;44.694;37.774;2023-05-16T05:23:15;8.90;;;2.90;;
79017;SDS011;69817;44.694;37.774;2023-05-16T05:24:21;6.85;;;2.67;;
79017;SDS011;69817;44.694;37.774;2023-05-16T05:25:28;7.38;;;2.90;;
79017;SDS011;69817;44.694;37.774;2023-05-16T05:26:35;8.15;;;2.90;;
79017;SDS011;69817;44.694;37.774;2023-05-16T05:27:42;5.93;;;2.67;;
79017;SDS011;69817;44.694;37.774;2023-05-16T05:28:49;6.82;;;2.85;;
79017;SDS011;69817;44.694;37.774;2023-05-16T05:29:56;8.68;;;2.80;;
79017;SDS011;69817;44.694;37.774;2023-05-16T05:31:03;7.40;;;2.30;;
79017;SDS011;69817;44.694;37.774;2023-05-16T05:32:13;7.45;;;2.85;;
79017;SDS011;69817;44.694;37.774;2023-05-16T05:33:24;6.88;;;2.50;;
79017;SDS011;69817;44.694;37.774;2023-05-16T05:34:33;9.40;;;3.15;;
79017;SDS011;69817;44.694;37.774;2023-05-16T05:35:40;9.18;;;2.70;;
79017;SDS011;69817;44.694;37.774;2023-05-16T05:36:47;6.28;;;2.70;;
79017;SDS011;69817;44.694;37.774;2023-05-16T05:37:54;7.82;;;2.70;;
79017;SDS011;69817;44.694;37.774;2023-05-16T05:39:01;7.90;;;2.88;;
79017;SDS011;69817;44.694;37.774;2023-05-16T05:40:08;8.80;;;2.63;;
79017;SDS011;69817;44.694;37.774;2023-05-16T05:41:15;7.28;;;2.63;;
79017;SDS011;69817;44.694;37.774;2023-05-16T05:42:22;7.15;;;2.85;;
79017;SDS011;69817;44.694;37.774;2023-05-16T05:43:28;8.80;;;2.50;;
79017;SDS011;69817;44.694;37.774;2023-05-16T05:44:35;9.00;;;3.00;;
79017;SDS011;69817;44.694;37.774;2023-05-16T05:45:43;7.30;;;2.78;;
79017;SDS011;69817;44.694;37.774;2023-05-16T05:46:50;9.32;;;3.03;;
79017;SDS011;69817;44.694;37.774;2023-05-16T05:47:57;7.20;;;2.60;;
79017;SDS011;69817;44.694;37.774;2023-05-16T05:49:04;8.55;;;2.80;;
79017;SDS011;69817;44.694;37.774;2023-05-16T05:50:11;6.88;;;2.40;;
79017;SDS011;69817;44.694;37.774;2023-05-16T05:51:19;8.38;;;2.60;;
79017;SDS011;69817;44.694;37.774;2023-05-16T05:52:26;7.57;;;2.70;;
79017;SDS011;69817;44.694;37.774;2023-05-16T05:53:33;10.05;;;2.95;;
79017;SDS011;69817;44.694;37.774;2023-05-16T05:54:40;6.88;;;2.67;;
79017;SDS011;69817;44.694;37.774;2023-05-16T05:55:47;8.30;;;2.65;;
79017;SDS011;69817;44.694;37.774;2023-05-16T05:56:56;7.38;;;2.70;;
79017;SDS011;69817;44.694;37.774;2023-05-16T05:58:03;7.35;;;2.70;;
79017;SDS011;69817;44.694;37.774;2023-05-16T05:59:10;8.05;;;3.03;;
79017;SDS011;69817;44.694;37.774;2023-05-16T06:00:17;7.00;;;2.60;;
79017;SDS011;69817;44.694;37.774;2023-05-16T06:01:25;7.68;;;2.72;;
79017;SDS011;69817;44.694;37.774;2023-05-16T06:02:32;6.50;;;2.70;;
79017;SDS011;69817;44.694;37.774;2023-05-16T06:03:39;5.88;;;2.80;;
79017;SDS011;69817;44.694;37.774;2023-05-16T06:04:46;7.68;;;2.70;;
79017;SDS011;69817;44.694;37.774;2023-05-16T06:05:54;7.75;;;2.70;;
79017;SDS011;69817;44.694;37.774;2023-05-16T06:07:06;8.20;;;2.78;;
79017;SDS011;69817;44.694;37.774;2023-05-16T06:08:12;8.32;;;2.67;;
79017;SDS011;69817;44.694;37.774;2023-05-16T06:09:21;6.78;;;2.67;;
79017;SDS011;69817;44.694;37.774;2023-05-16T06:10:28;7.43;;;3.00;;
79017;SDS011;69817;44.694;37.774;2023-05-16T06:11:37;5.65;;;2.53;;
79017;SDS011;69817;44.694;37.774;2023-05-16T06:12:44;8.10;;;2.97;;
79017;SDS011;69817;44.694;37.774;2023-05-16T06:13:51;7.15;;;2.58;;
79017;SDS011;69817;44.694;37.774;2023-05-16T06:14:59;9.55;;;3.20;;
79017;SDS011;69817;44.694;37.774;2023-05-16T06:16:07;7.60;;;2.78;;
79017;SDS011;69817;44.694;37.774;2023-05-16T06:17:14;7.50;;;2.60;;
79017;SDS011;69817;44.694;37.774;2023-05-16T06:18:21;10.15;;;3.13;;
79017;SDS011;69817;44.694;37.774;2023-05-16T06:19:29;9.15;;;2.72;;
79017;SDS011;69817;44.694;37.774;2023-05-16T06:20:36;7.40;;;2.80;;
79017;SDS011;69817;44.694;37.774;2023-05-16T06:21:43;8.43;;;2.85;;
79017;SDS011;69817;44.694;37.774;2023-05-16T06:22:52;10.25;;;2.80;;
79017;SDS011;69817;44.694;37.774;2023-05-16T06:23:58;8.80;;;2.85;;
79017;SDS011;69817;44.694;37.774;2023-05-16T06:25:08;10.93;;;3.42;;
79017;SDS011;69817;44.694;37.774;2023-05-16T06:26:15;8.55;;;2.85;;
79017;SDS011;69817;44.694;37.774;2023-05-16T06:27:22;9.30;;;3.08;;
79017;SDS011;69817;44.694;37.774;2023-05-16T06:28:28;11.48;;;2.88;;
79017;SDS011;69817;44.694;37.774;2023-05-16T06:29:35;10.57;;;3.40;;
79017;SDS011;69817;44.694;37.774;2023-05-16T06:30:43;8.95;;;3.05;;
79017;SDS011;69817;44.694;37.774;2023-05-16T06:31:50;8.32;;;3.13;;
79017;SDS011;69817;44.694;37.774;2023-05-16T06:32:57;10.32;;;3.28;;